Time;durP1;ratioP1;P1;durP2;ratioP2;P2;SDS_P1;SDS_P2;PMS_P1;PMS_P2;Temp;Humidity;BMP_temperature;BMP_pressure;BME280_temperature;BME280_humidity;BME280_pressure;Samples;Min_cycle;Max_cycle;Signal;HPM_P1;HPM_P2
2022/01/14 00:00:17;;;;;;;;;10.50;10.25;;;;;16.28;55.24;103817.97;4991736;28;9813;-82
2022/01/14 00:02:42;;;;;;;;;10.00;10.00;;;;;16.26;55.40;103814.38;4990669;28;9840;-81
2022/01/14 00:05:11;;;;;;;;;13.50;13.50;;;;;16.28;55.38;103807.44;4991466;28;9663;-81
2022/01/14 00:07:38;;;;;;;;;10.25;10.25;;;;;16.28;55.58;103801.25;4991731;28;8780;-82
2022/01/14 00:10:04;;;;;;;;;9.50;8.25;;;;;16.29;55.37;103798.72;4990782;28;9822;-82
2022/01/14 00:12:36;;;;;;;;;9.75;9.75;;;;;16.34;55.13;103804.19;4991261;28;9879;-81
2022/01/14 00:17:41;;;;;;;;;7.25;7.25;;;;;16.27;55.32;103788.94;4955019;28;10022;-81
2022/01/14 00:20:15;;;;;;;;;8.75;8.75;;;;;16.26;55.18;103779.22;4956473;28;9814;-82
2022/01/14 00:23:00;;;;;;;;;9.75;9.75;;;;;16.24;55.24;103760.66;4955776;28;9963;-81
2022/01/14 00:33:55;;;;;;;;;12.25;11.75;;;;;16.24;55.15;103747.50;4956026;28;9784;-81
2022/01/14 00:36:21;;;;;;;;;10.50;10.50;;;;;16.22;55.44;103745.63;4955538;28;9723;-81
2022/01/14 00:38:51;;;;;;;;;7.75;7.75;;;;;16.31;55.04;103753.94;4967728;23;8907;-81
2022/01/14 00:41:16;;;;;;;;;7.00;7.00;;;;;16.24;55.25;103741.31;4995251;28;8772;-81
2022/01/14 00:43:43;;;;;;;;;9.50;9.50;;;;;16.26;55.22;103744.94;4994054;28;9824;-81
2022/01/14 00:46:08;;;;;;;;;9.50;7.25;;;;;16.29;55.34;103742.44;4994987;28;8811;-81
2022/01/14 00:48:46;;;;;;;;;12.00;10.75;;;;;16.26;55.11;103743.22;4994870;28;9823;-81
2022/01/14 00:51:11;;;;;;;;;8.00;6.25;;;;;16.24;55.14;103729.03;4993839;28;8804;-81
2022/01/14 00:53:49;;;;;;;;;9.25;8.25;;;;;16.24;55.16;103726.41;4994754;28;9689;-80
2022/01/14 00:56:32;;;;;;;;;6.75;6.75;;;;;16.26;55.08;103734.41;4994795;28;8768;-81
2022/01/14 00:59:18;;;;;;;;;10.00;9.00;;;;;16.25;55.26;103738.75;4993742;28;9871;-81
2022/01/14 01:01:59;;;;;;;;;10.00;10.00;;;;;16.16;55.17;103714.63;4994451;28;9758;-81
2022/01/14 01:04:38;;;;;;;;;7.25;7.25;;;;;16.20;55.19;103721.81;4993700;28;9688;-81
2022/01/14 01:07:17;;;;;;;;;9.50;8.25;;;;;16.25;54.98;103735.22;4994549;28;9787;-80
2022/01/14 01:10:12;;;;;;;;;8.00;8.00;;;;;16.26;54.98;103726.50;4993904;28;9647;-81
2022/01/14 01:12:58;;;;;;;;;9.25;8.25;;;;;16.21;55.16;103725.38;4993906;28;10191;-81
2022/01/14 01:15:23;;;;;;;;;9.25;9.25;;;;;16.22;54.86;103724.53;4994724;28;9789;-81
2022/01/14 01:17:57;;;;;;;;;11.00;8.75;;;;;16.24;55.01;103728.13;4994040;28;9771;-81
2022/01/14 01:20:23;;;;;;;;;11.50;8.50;;;;;16.17;54.80;103724.34;4994137;28;8768;-81
2022/01/14 01:23:02;;;;;;;;;9.00;7.00;;;;;16.23;54.85;103719.31;5001138;23;9832;-80
2022/01/14 01:25:36;;;;;;;;;8.50;8.50;;;;;16.25;55.01;103722.94;4992850;28;8837;-81
2022/01/14 01:28:06;;;;;;;;;11.50;10.50;;;;;16.15;54.70;103712.84;4985796;28;10536;-81
2022/01/14 01:30:57;;;;;;;;;9.00;9.00;;;;;16.23;54.86;103719.31;4994171;28;9745;-81
2022/01/14 01:33:26;;;;;;;;;8.50;8.50;;;;;16.22;54.99;103720.19;4993298;28;9720;-81
2022/01/14 01:36:12;;;;;;;;;9.00;7.00;;;;;16.20;55.01;103713.91;4994006;28;9647;-81
2022/01/14 01:42:10;;;;;;;;;9.00;8.25;;;;;16.20;54.96;103715.66;4994827;28;10476;-81
2022/01/14 01:44:50;;;;;;;;;6.75;6.75;;;;;16.24;54.93;103709.69;4993906;28;9651;-81
2022/01/14 01:47:39;;;;;;;;;7.00;6.00;;;;;16.26;54.80;103714.22;4993074;28;9694;-81
2022/01/14 01:50:14;;;;;;;;;7.25;6.50;;;;;16.25;54.86;103716.75;4993625;28;9663;-81
2022/01/14 01:52:50;;;;;;;;;9.25;9.25;;;;;16.13;54.98;103709.22;4993500;28;9603;-81
2022/01/14 01:55:16;;;;;;;;;5.75;5.75;;;;;16.15;54.72;103704.03;4993177;28;9753;-81
2022/01/14 01:57:53;;;;;;;;;6.75;6.75;;;;;16.23;54.87;103719.31;4993365;28;9681;-81
2022/01/14 02:00:31;;;;;;;;;9.00;9.00;;;;;16.21;54.70;103730.63;4992892;28;8782;-81
2022/01/14 02:03:08;;;;;;;;;9.25;9.25;;;;;16.19;54.91;103720.03;4993138;28;10458;-80
2022/01/14 02:08:08;;;;;;;;;7.00;7.00;;;;;16.21;54.81;103720.09;5152150;23;9685;-80
2022/01/14 02:10:34;;;;;;;;;6.50;6.00;;;;;16.14;54.67;103700.47;4993696;28;9736;-81
2022/01/14 02:13:01;;;;;;;;;8.75;8.75;;;;;16.22;54.88;103719.28;4993294;28;8809;-81
2022/01/14 02:15:45;;;;;;;;;8.50;7.75;;;;;16.23;54.41;103718.44;4992679;28;8782;-81
2022/01/14 02:18:27;;;;;;;;;6.75;6.75;;;;;16.19;54.40;103708.59;4993243;28;9721;-81
2022/01/14 02:26:59;;;;;;;;;6.00;6.00;;;;;16.12;54.84;103693.34;4992807;28;10467;-81
2022/01/14 02:32:53;;;;;;;;;5.75;5.75;;;;;16.12;54.52;103696.84;5011426;28;9691;-80
2022/01/14 02:35:29;;;;;;;;;6.00;6.00;;;;;16.22;54.64;103711.38;5012596;28;9735;-81
2022/01/14 02:37:55;;;;;;;;;7.00;6.00;;;;;16.15;54.63;103706.66;5012090;28;9890;-82
2022/01/14 02:40:35;;;;;;;;;5.75;5.75;;;;;16.19;54.74;103711.22;5012630;28;9572;-81
2022/01/14 02:43:02;;;;;;;;;6.00;6.00;;;;;16.14;54.67;103720.66;5011190;28;8803;-80
2022/01/14 02:45:33;;;;;;;;;5.00;4.75;;;;;16.18;54.58;103719.97;5012111;28;9924;-80
2022/01/14 02:48:01;;;;;;;;;6.00;6.00;;;;;16.21;54.90;103722.72;5012045;28;10470;-81
2022/01/14 02:50:36;;;;;;;;;9.75;9.50;;;;;16.16;54.91;103724.28;5011631;28;9889;-80
2022/01/14 02:56:04;;;;;;;;;9.75;8.00;;;;;16.13;55.16;103709.22;5012019;28;9732;-80
2022/01/14 02:58:32;;;;;;;;;6.50;5.25;;;;;16.18;54.83;103718.25;5011447;28;9634;-81
2022/01/14 03:01:10;;;;;;;;;4.75;4.75;;;;;16.11;55.17;103716.16;5011858;28;9710;-81
2022/01/14 03:03:36;;;;;;;;;5.00;4.75;;;;;16.11;54.91;103707.34;5011489;28;9575;-81
2022/01/14 03:06:05;;;;;;;;;6.00;6.00;;;;;16.12;54.59;103717.06;5011751;28;9483;-81
2022/01/14 03:08:45;;;;;;;;;6.75;6.75;;;;;16.05;54.94;103723.78;4973004;28;9586;-81
2022/01/14 03:11:15;;;;;;;;;5.00;5.00;;;;;16.08;55.07;103717.75;4972555;28;9701;-81
2022/01/14 03:13:41;;;;;;;;;5.25;5.25;;;;;16.09;54.64;103704.63;4972370;28;9726;-81
2022/01/14 03:16:14;;;;;;;;;5.25;5.25;;;;;16.12;54.85;103717.94;4972816;28;9497;-81
2022/01/14 03:18:48;;;;;;;;;5.00;5.00;;;;;16.04;54.79;103697.38;4972187;28;8779;-80
2022/01/14 03:21:16;;;;;;;;;8.00;6.75;;;;;16.05;55.04;103705.31;4972979;28;9508;-81
2022/01/14 03:25:36;;;;;;;;;3.75;3.75;;;;;16.09;55.11;103714.28;4972563;28;9657;-81
2022/01/14 03:27:07;;;;;;;;;4.75;4.00;;;;;16.10;55.04;103716.09;4911417;29;10288;-81
2022/01/14 03:29:48;;;;;;;;;6.50;5.25;;;;;16.06;54.70;103708.88;4912860;29;9537;-81
2022/01/14 03:32:28;;;;;;;;;4.00;4.00;;;;;16.05;54.74;103709.69;4958007;28;8827;-81
2022/01/14 03:34:54;;;;;;;;;8.50;6.75;;;;;16.14;54.92;103723.28;4953155;28;9569;-80
2022/01/14 03:37:19;;;;;;;;;4.00;4.00;;;;;16.10;54.82;103710.81;4952966;28;9587;-81
2022/01/14 03:39:48;;;;;;;;;5.00;5.00;;;;;16.12;54.62;103717.06;4952086;28;8973;-80
2022/01/14 03:42:23;;;;;;;;;6.00;6.00;;;;;16.02;54.55;103699.03;4953472;28;8814;-81
2022/01/14 03:44:49;;;;;;;;;5.00;5.00;;;;;16.03;54.88;103691.19;4953237;28;9622;-81
2022/01/14 03:47:14;;;;;;;;;7.25;6.00;;;;;16.04;54.61;103690.38;4951662;28;9616;-81
2022/01/14 03:49:52;;;;;;;;;6.75;5.50;;;;;16.06;54.72;103687.78;4952523;28;8814;-81
2022/01/14 03:52:20;;;;;;;;;5.75;5.25;;;;;16.03;54.96;103679.75;4953369;29;8811;-80
2022/01/14 03:58:13;;;;;;;;;7.75;6.00;;;;;16.00;54.71;103672.63;4952930;29;9480;-79
2022/01/14 04:00:45;;;;;;;;;6.25;6.25;;;;;16.08;54.65;103678.22;4952133;29;9656;-79
2022/01/14 04:03:14;;;;;;;;;5.00;5.00;;;;;15.95;54.77;103669.78;4953388;29;9636;-79
2022/01/14 04:05:39;;;;;;;;;6.25;6.25;;;;;15.97;54.70;103669.84;4952729;29;9546;-79
2022/01/14 04:08:08;;;;;;;;;6.50;6.50;;;;;16.03;54.79;103663.94;4967578;28;9527;-80
2022/01/14 04:10:34;;;;;;;;;6.00;6.00;;;;;16.06;54.83;103664.06;4972278;28;8805;-80
2022/01/14 04:13:04;;;;;;;;;5.00;5.00;;;;;16.01;54.49;103661.22;4971590;28;9656;-80
2022/01/14 04:18:49;;;;;;;;;5.00;5.00;;;;;16.03;54.55;103666.56;4949646;28;9671;-80
2022/01/14 04:21:26;;;;;;;;;6.00;6.00;;;;;15.98;54.46;103654.91;4971466;28;9742;-80
2022/01/14 04:23:53;;;;;;;;;8.25;8.25;;;;;16.07;54.58;103669.41;4971954;28;9730;-80
2022/01/14 04:26:19;;;;;;;;;5.00;5.00;;;;;15.98;54.47;103657.56;4971992;28;9617;-80
2022/01/14 04:28:50;;;;;;;;;5.00;5.00;;;;;16.00;54.68;103656.81;4974859;28;9601;-80
2022/01/14 04:31:18;;;;;;;;;5.75;5.00;;;;;15.98;54.72;103647.91;4971986;28;8827;-81
2022/01/14 04:33:44;;;;;;;;;7.50;6.25;;;;;16.05;54.82;103641.16;4973922;28;9617;-80
2022/01/14 04:36:09;;;;;;;;;6.00;6.00;;;;;16.06;54.66;103643.88;4990703;28;9794;-80
2022/01/14 04:38:35;;;;;;;;;4.00;4.00;;;;;16.04;54.52;103632.41;4991650;28;8809;-80
2022/01/14 04:41:01;;;;;;;;;5.00;5.00;;;;;16.03;54.83;103629.69;4991119;28;9636;-81
2022/01/14 04:43:29;;;;;;;;;4.00;4.00;;;;;16.06;54.38;103642.97;4990874;28;8778;-80
2022/01/14 04:46:14;;;;;;;;;6.00;5.00;;;;;16.08;54.57;103639.59;4990871;28;9670;-80
2022/01/14 04:48:39;;;;;;;;;6.75;6.75;;;;;16.05;54.63;103628.00;4991378;28;9771;-81
2022/01/14 04:51:06;;;;;;;;;6.00;6.00;;;;;16.03;54.45;103632.31;4990688;28;9664;-81
2022/01/14 04:53:39;;;;;;;;;5.00;5.00;;;;;16.04;54.59;103640.31;4990488;28;8805;-81
2022/01/14 04:56:04;;;;;;;;;5.75;5.75;;;;;16.07;54.36;103642.16;4986959;28;9805;-81
2022/01/14 04:58:30;;;;;;;;;4.25;3.75;;;;;15.97;54.17;103626.78;4991219;28;9835;-81
2022/01/14 05:00:55;;;;;;;;;5.50;5.50;;;;;16.04;54.61;103632.41;4991655;28;8912;-81
2022/01/14 05:03:23;;;;;;;;;4.75;4.75;;;;;15.98;54.64;103620.66;4994190;28;8789;-81
2022/01/14 05:05:52;;;;;;;;;5.00;5.00;;;;;15.96;54.60;103617.97;4994452;28;9593;-81
2022/01/14 05:08:44;;;;;;;;;7.50;7.50;;;;;16.05;54.59;103622.72;4994584;28;9600;-81
2022/01/14 05:13:52;;;;;;;;;6.25;6.25;;;;;15.97;54.38;103611.88;4994283;28;9549;-81
2022/01/14 05:16:17;;;;;;;;;6.00;6.00;;;;;15.94;54.38;103609.09;4994509;28;9522;-81
2022/01/14 05:18:42;;;;;;;;;7.00;6.25;;;;;15.92;54.41;103600.22;4993718;28;9580;-81
2022/01/14 05:21:19;;;;;;;;;5.75;5.50;;;;;16.04;54.09;103608.69;4994516;28;8924;-80
2022/01/14 05:23:44;;;;;;;;;5.25;5.25;;;;;16.07;54.12;103618.44;4994042;28;8777;-81
2022/01/14 05:26:23;;;;;;;;;7.00;7.00;;;;;15.96;54.30;103594.25;4993286;28;10526;-81
2022/01/14 05:28:48;;;;;;;;;4.00;4.00;;;;;16.01;54.48;103597.09;4996210;28;8836;-81
2022/01/14 05:31:20;;;;;;;;;4.25;4.00;;;;;15.94;54.40;103591.56;4993618;28;9811;-81
2022/01/14 05:33:54;;;;;;;;;4.50;4.50;;;;;16.01;54.41;103590.06;4993917;28;8780;-80
2022/01/14 05:36:21;;;;;;;;;5.75;5.00;;;;;15.96;54.44;103602.16;4993943;28;9624;-81
2022/01/14 05:38:58;;;;;;;;;5.00;5.00;;;;;15.96;54.31;103591.63;4992098;28;9699;-81
2022/01/14 05:41:32;;;;;;;;;6.00;6.00;;;;;15.91;54.27;103593.16;4994200;28;9808;-82
2022/01/14 05:43:58;;;;;;;;;7.50;7.25;;;;;16.05;54.65;103607.81;4992233;28;9682;-80
2022/01/14 05:46:41;;;;;;;;;8.00;6.00;;;;;16.04;54.29;103602.50;4993157;28;9788;-80
2022/01/14 05:49:20;;;;;;;;;6.75;6.50;;;;;15.94;54.17;103598.56;4993971;28;8810;-80
2022/01/14 05:51:51;;;;;;;;;8.00;5.50;;;;;15.98;54.05;103596.94;4993785;28;9542;-80
2022/01/14 05:54:18;;;;;;;;;7.00;6.00;;;;;15.95;54.03;103590.72;4993321;28;9756;-80
2022/01/14 05:56:47;;;;;;;;;5.50;5.50;;;;;15.95;53.96;103584.56;4993638;28;9792;-80
2022/01/14 05:59:33;;;;;;;;;5.50;5.50;;;;;15.91;54.14;103601.97;4993550;28;9628;-80
2022/01/14 06:02:04;;;;;;;;;5.00;5.00;;;;;16.00;54.07;103612.00;4993376;28;9916;-81
2022/01/14 06:04:32;;;;;;;;;6.00;6.00;;;;;15.98;53.96;103612.75;4993743;28;9816;-80
2022/01/14 06:06:58;;;;;;;;;4.50;4.50;;;;;15.94;54.00;103598.56;4991305;28;9884;-82
2022/01/14 06:09:25;;;;;;;;;6.00;5.00;;;;;15.96;54.09;103604.81;4993123;28;9668;-80
2022/01/14 06:11:50;;;;;;;;;7.50;5.75;;;;;15.98;54.42;103605.75;4992231;28;8908;-80
2022/01/14 06:14:16;;;;;;;;;6.00;6.00;;;;;15.97;53.99;103608.34;4992520;28;9874;-81
2022/01/14 06:16:42;;;;;;;;;9.00;6.00;;;;;15.97;54.00;103601.34;4993090;28;8790;-81
2022/01/14 06:19:19;;;;;;;;;5.00;5.00;;;;;16.00;54.03;103606.75;4993409;28;8812;-81
2022/01/14 06:21:50;;;;;;;;;7.00;7.00;;;;;15.99;54.20;103614.56;4977360;28;9766;-81
2022/01/14 06:24:31;;;;;;;;;4.50;4.50;;;;;15.94;54.00;103615.25;4973505;28;10577;-81
2022/01/14 06:26:56;;;;;;;;;4.75;4.75;;;;;15.98;54.16;103612.75;4973751;28;9719;-81
2022/01/14 06:29:22;;;;;;;;;4.50;4.50;;;;;15.93;54.08;103616.09;4982508;28;9762;-81
2022/01/14 06:31:56;;;;;;;;;5.00;5.00;;;;;15.98;53.80;103618.94;4992383;28;8813;-80
2022/01/14 06:34:21;;;;;;;;;4.50;4.50;;;;;15.97;53.88;103616.25;4993271;28;8786;-80
2022/01/14 06:36:53;;;;;;;;;3.75;3.75;;;;;15.93;54.04;103618.72;4991184;28;9781;-80
2022/01/14 06:39:21;;;;;;;;;4.50;4.50;;;;;16.01;54.24;103628.72;4993079;28;8817;-80
2022/01/14 06:41:46;;;;;;;;;5.50;5.50;;;;;16.00;53.99;103630.47;4991735;28;9608;-80
2022/01/14 06:47:46;;;;;;;;;5.00;5.00;;;;;15.92;54.06;103630.13;4913498;29;9565;-80
2022/01/14 06:50:15;;;;;;;;;6.00;6.00;;;;;15.94;53.89;103641.63;4912874;29;9585;-80
2022/01/14 06:52:40;;;;;;;;;4.25;4.25;;;;;15.95;53.89;103621.44;4913179;29;9696;-81
2022/01/14 06:55:07;;;;;;;;;5.00;5.00;;;;;15.88;53.97;103627.28;4913508;29;9674;-81
2022/01/14 06:57:36;;;;;;;;;6.00;5.00;;;;;15.92;54.06;103634.47;4914568;28;8844;-81
2022/01/14 07:00:13;;;;;;;;;5.00;4.75;;;;;16.01;53.74;103639.28;4973204;28;9618;-81
2022/01/14 07:02:41;;;;;;;;;7.00;6.25;;;;;15.91;53.82;103616.88;4972410;28;9682;-81
2022/01/14 07:05:19;;;;;;;;;4.50;4.50;;;;;15.90;53.67;103630.88;4989589;28;9921;-81
2022/01/14 07:07:45;;;;;;;;;6.75;5.50;;;;;15.93;53.94;103626.63;5010796;28;9689;-81
2022/01/14 07:10:20;;;;;;;;;5.50;5.50;;;;;15.94;53.74;103630.16;5011328;28;9595;-81
2022/01/14 07:12:46;;;;;;;;;4.25;4.25;;;;;15.94;53.90;103640.72;5011744;28;8846;-81
2022/01/14 07:21:39;;;;;;;;;;;;;;;;;;;;;
2022/01/14 07:28:38;;;;;;;;;;;;;;;;;;;;;
2022/01/14 07:31:53;;;;;;;;;12.75;11.25;;;;;16.68;66.71;103650.97;4798127;29;9663;-87
2022/01/14 07:44:51;;;;;;;;;9.75;8.75;;;;;16.68;66.39;103648.34;5195683;23;9787;-82
2022/01/14 07:47:26;;;;;;;;;7.75;7.75;;;;;16.70;65.52;103641.38;4991573;28;9616;-82
2022/01/14 07:49:56;;;;;;;;;8.50;8.00;;;;;16.60;65.79;103639.22;4991221;28;9671;-82
2022/01/14 07:52:24;;;;;;;;;10.75;9.75;;;;;16.62;65.25;103653.34;4991384;28;9736;-82
2022/01/14 07:57:25;;;;;;;;;10.75;10.75;;;;;16.65;65.12;103662.28;5117995;23;10626;-82
2022/01/14 08:00:10;;;;;;;;;11.75;10.25;;;;;16.56;65.02;103639.88;4973319;28;9953;-82
2022/01/14 08:02:38;;;;;;;;;8.00;6.25;;;;;16.52;64.99;103633.56;4991385;28;8858;-82
2022/01/14 08:08:47;;;;;;;;;11.00;8.75;;;;;16.51;64.60;103646.69;4931499;28;9717;-82
2022/01/14 08:11:13;;;;;;;;;11.25;10.75;;;;;16.47;64.46;103640.38;4991091;28;9857;-82
2022/01/14 08:13:49;;;;;;;;;8.50;8.50;;;;;16.52;64.43;103636.22;4990774;28;9722;-82
2022/01/14 08:16:15;;;;;;;;;9.75;8.25;;;;;16.49;64.30;103644.00;4991036;28;8772;-82
2022/01/14 08:25:16;;;;;;;;;11.25;9.75;;;;;16.45;63.49;103657.91;5010544;28;9588;-82
2022/01/14 08:31:03;;;;;;;;;7.00;7.00;;;;;16.47;63.11;103663.22;5191018;23;9781;-82
2022/01/14 08:33:46;;;;;;;;;11.75;10.25;;;;;16.45;62.96;103657.91;4991581;28;9923;-82
2022/01/14 08:36:57;;;;;;;;;9.75;7.75;;;;;16.48;62.73;103665.94;4993701;28;8776;-82
2022/01/14 08:39:31;;;;;;;;;7.50;7.50;;;;;16.38;63.02;103654.06;4994980;28;9701;-82
2022/01/14 08:42:08;;;;;;;;;9.75;8.75;;;;;16.43;62.35;103663.09;4994196;28;9709;-82
2022/01/14 08:44:41;;;;;;;;;10.75;10.25;;;;;16.37;62.25;103647.03;4995147;28;9824;-82
2022/01/14 08:47:21;;;;;;;;;10.50;9.50;;;;;16.39;62.13;103649.69;4995105;28;9830;-82
2022/01/14 08:49:51;;;;;;;;;8.25;8.25;;;;;16.45;61.75;103649.97;4993913;28;9985;-82
2022/01/14 08:53:04;;;;;;;;;;;;;;;;;;;;;
2022/01/14 09:02:07;;;;;;;;;9.75;9.00;;;;;16.44;60.78;103646.44;5251950;23;9825;-82
2022/01/14 09:05:10;;;;;;;;;;;;;;;;;;;;;
2022/01/14 09:10:32;;;;;;;;;11.25;11.00;;;;;16.38;60.38;103640.88;5009478;23;9982;-82
2022/01/14 09:16:26;;;;;;;;;6.75;6.75;;;;;16.37;60.06;103654.94;4993513;28;9672;-82
2022/01/14 09:19:05;;;;;;;;;12.50;8.25;;;;;16.40;59.95;103664.69;4994027;28;9642;-82
2022/01/14 09:21:45;;;;;;;;;4.50;4.50;;;;;16.32;59.77;103650.28;4994697;28;9676;-82
2022/01/14 09:24:14;;;;;;;;;7.00;7.00;;;;;16.33;59.84;103649.47;4993667;28;9717;-82
2022/01/14 09:26:55;;;;;;;;;10.25;10.25;;;;;16.40;59.78;103662.97;4993450;28;9649;-81
2022/01/14 09:29:35;;;;;;;;;9.00;9.00;;;;;16.40;59.56;103662.06;4993902;28;9832;-81
2022/01/14 09:32:17;;;;;;;;;8.00;8.00;;;;;16.41;59.38;103664.78;4993117;28;9830;-81
2022/01/14 09:40:56;;;;;;;;;9.00;9.00;;;;;16.33;59.00;103652.09;5273610;23;9769;-82
2022/01/14 09:43:38;;;;;;;;;9.50;9.50;;;;;16.35;59.00;103653.94;4974749;28;9706;-82
2022/01/14 09:46:13;;;;;;;;;11.00;11.00;;;;;16.31;58.81;103649.38;4965231;28;9754;-82
2022/01/14 09:48:51;;;;;;;;;11.00;11.00;;;;;16.32;58.69;103645.00;4974175;28;9692;-82
2022/01/14 09:54:06;;;;;;;;;8.25;8.25;;;;;16.31;58.52;103656.38;5243318;23;10379;-81
2022/01/14 09:56:39;;;;;;;;;11.00;11.00;;;;;16.33;58.47;103657.38;4993706;28;9805;-82
2022/01/14 09:59:19;;;;;;;;;8.25;8.25;;;;;16.34;58.45;103641.63;4992919;28;9691;-82
2022/01/14 10:01:50;;;;;;;;;10.50;9.00;;;;;16.33;58.26;103654.72;4999621;23;9861;-82
2022/01/14 10:04:24;;;;;;;;;9.25;9.25;;;;;16.25;58.50;103635.94;4993514;28;9798;-82
2022/01/14 10:07:38;;;;;;;;;11.75;11.25;;;;;16.25;58.33;103638.59;4992024;28;9836;-81
2022/01/14 10:13:29;;;;;;;;;11.75;10.00;;;;;16.28;58.13;103653.63;5131404;23;9875;-81
2022/01/14 10:17:00;;;;;;;;;6.50;6.50;;;;;16.26;57.92;103655.31;5045802;23;9990;-82
2022/01/14 10:20:08;;;;;;;;;9.00;9.00;;;;;16.31;57.94;103664.28;5131742;23;9871;-81
2022/01/14 10:22:51;;;;;;;;;8.00;8.00;;;;;16.30;58.03;103663.41;4999415;23;10012;-82
2022/01/14 10:25:26;;;;;;;;;9.00;7.50;;;;;16.20;57.85;103652.38;4992803;28;9617;-82
2022/01/14 10:33:36;;;;;;;;;10.50;10.50;;;;;16.36;57.65;103668.03;4992735;28;9801;-81
2022/01/14 10:36:21;;;;;;;;;8.75;8.75;;;;;16.21;57.49;103662.09;4991928;28;9830;-80
2022/01/14 10:38:49;;;;;;;;;9.50;9.25;;;;;16.31;57.70;103677.47;4998502;23;9866;-81
2022/01/14 10:41:14;;;;;;;;;9.25;9.00;;;;;16.27;57.47;103670.31;4992171;28;9771;-80
2022/01/14 10:46:42;;;;;;;;;9.00;9.00;;;;;16.28;57.64;103667.72;4999134;23;8875;-80
2022/01/14 10:49:10;;;;;;;;;8.75;8.75;;;;;16.24;57.50;103660.50;4991742;28;9728;-81
2022/01/14 10:51:44;;;;;;;;;9.75;9.75;;;;;16.22;57.31;103654.28;4999098;23;9838;-81
2022/01/14 10:57:48;;;;;;;;;12.50;11.00;;;;;16.31;57.39;103661.66;4992315;28;9756;-81
2022/01/14 11:03:16;;;;;;;;;;;;;;;;;;;;;
2022/01/14 11:05:49;;;;;;;;;11.75;10.25;;;;;16.27;57.49;103658.00;5002131;28;9795;-81
2022/01/14 11:08:54;;;;;;;;;11.00;8.25;;;;;16.29;57.28;103656.34;5012259;28;9853;-81
2022/01/14 11:11:25;;;;;;;;;11.00;11.00;;;;;16.21;57.16;103646.28;5011289;28;9790;-81
2022/01/14 11:14:14;;;;;;;;;9.75;9.00;;;;;16.22;57.18;103640.19;5011433;28;9957;-81
2022/01/14 11:16:54;;;;;;;;;8.75;7.25;;;;;16.27;57.16;103642.16;5011181;28;9742;-81
2022/01/14 11:19:24;;;;;;;;;6.00;6.00;;;;;16.26;57.16;103639.50;5011863;28;9896;-81
2022/01/14 11:25:12;;;;;;;;;9.50;9.50;;;;;16.29;57.07;103652.78;5010659;28;9754;-81
2022/01/14 11:28:11;;;;;;;;;9.25;8.75;;;;;16.29;57.17;103653.69;5011544;28;9669;-81
2022/01/14 11:30:56;;;;;;;;;8.75;8.75;;;;;16.31;57.10;103645.84;5010904;28;9714;-81
2022/01/14 11:40:53;;;;;;;;;9.25;8.00;;;;;16.26;57.08;103640.41;4991453;28;9805;-81
2022/01/14 11:47:00;;;;;;;;;8.25;8.25;;;;;16.31;56.73;103635.28;4991430;28;9790;-81
2022/01/14 11:49:37;;;;;;;;;11.50;10.25;;;;;16.32;56.89;103637.09;4991985;28;9709;-82
2022/01/14 11:52:42;;;;;;;;;6.00;6.00;;;;;16.25;56.94;103629.78;4990752;28;9882;-82
2022/01/14 11:55:22;;;;;;;;;9.25;7.50;;;;;16.31;56.95;103644.09;4991928;28;9747;-83
2022/01/14 11:57:52;;;;;;;;;6.75;6.25;;;;;16.32;56.99;103643.28;4991606;28;9727;-83
2022/01/14 12:03:15;;;;;;;;;8.50;8.00;;;;;16.23;56.79;103626.19;4991347;28;9720;-80
2022/01/14 12:06:07;;;;;;;;;8.50;6.75;;;;;16.28;56.84;103636.06;4990274;28;9545;-81
2022/01/14 12:08:55;;;;;;;;;5.25;5.25;;;;;16.28;57.00;103638.72;4990931;28;9793;-81
2022/01/14 12:11:24;;;;;;;;;10.50;9.25;;;;;16.26;56.69;103635.13;4994633;28;10367;-82
2022/01/14 12:14:04;;;;;;;;;7.25;6.75;;;;;16.26;56.79;103624.56;4994562;28;9701;-81
2022/01/14 12:16:39;;;;;;;;;6.00;6.00;;;;;16.25;56.75;103633.31;4996633;28;10543;-81
2022/01/14 12:25:43;;;;;;;;;6.75;6.75;;;;;16.24;56.88;103627.97;4967667;23;9705;-81
2022/01/14 12:28:43;;;;;;;;;6.00;6.00;;;;;16.19;56.94;103614.59;4975172;28;9958;-81
2022/01/14 12:31:09;;;;;;;;;7.25;7.00;;;;;16.17;56.81;103613.63;4988958;28;9822;-81
2022/01/14 12:34:15;;;;;;;;;9.75;6.75;;;;;16.31;56.75;103624.75;4994300;28;9967;-81
2022/01/14 12:37:31;;;;;;;;;8.50;6.50;;;;;16.29;56.61;103626.44;4993893;28;8833;-82
2022/01/14 12:40:16;;;;;;;;;8.00;8.00;;;;;16.16;56.81;103606.53;4994845;28;9748;-81
2022/01/14 12:42:54;;;;;;;;;8.25;7.50;;;;;16.37;61.15;103618.03;4995278;28;9656;-85
2022/01/14 12:46:35;;;;;;;;;14.75;13.75;;;;;16.66;64.07;103627.16;4995161;28;9826;-86
2022/01/14 13:12:57;;;;;;;;;11.25;10.25;;;;;16.84;66.46;103608.53;4932523;23;9898;-83
2022/01/14 13:16:19;;;;;;;;;8.50;8.50;;;;;16.84;66.55;103611.16;4999568;28;9898;-82
2022/01/14 13:19:41;;;;;;;;;10.00;10.00;;;;;16.80;66.68;103610.16;5012633;28;8821;-82
2022/01/14 13:23:09;;;;;;;;;11.75;11.75;;;;;16.79;66.11;103612.75;5011363;28;9917;-82
2022/01/14 13:26:21;;;;;;;;;10.75;9.75;;;;;16.79;65.89;103607.47;5011635;28;9654;-83
2022/01/14 13:29:03;;;;;;;;;10.25;10.00;;;;;16.72;65.28;103597.50;5012788;28;9657;-82
2022/01/14 13:38:28;;;;;;;;;9.50;6.75;;;;;16.66;64.97;103581.41;4932747;28;9704;-82
2022/01/14 13:54:05;;;;;;;;;7.25;7.25;;;;;16.70;63.44;103572.78;4973601;28;10419;-79
2022/01/14 13:56:43;;;;;;;;;7.25;6.75;;;;;16.71;63.15;103564.94;4959154;28;9758;-81
2022/01/14 13:59:08;;;;;;;;;9.75;8.25;;;;;16.67;63.30;103560.38;4973062;28;9673;-81
2022/01/14 14:01:58;;;;;;;;;6.50;6.50;;;;;16.76;63.14;103573.91;4983915;28;9749;-81
2022/01/14 14:04:44;;;;;;;;;8.50;7.00;;;;;16.78;62.90;103579.28;4972387;28;8839;-80
2022/01/14 14:07:12;;;;;;;;;7.00;6.00;;;;;16.79;62.60;103566.16;4972479;28;9695;-81
2022/01/14 14:16:41;;;;;;;;;7.50;7.50;;;;;16.72;61.88;103569.34;4836536;29;10934;-81
2022/01/14 14:19:06;;;;;;;;;9.50;7.00;;;;;16.80;61.88;103574.94;4819928;29;10526;-78
2022/01/14 14:22:05;;;;;;;;;5.75;5.75;;;;;16.74;61.69;103580.88;4839277;29;9748;-78
2022/01/14 14:28:26;;;;;;;;;8.25;6.00;;;;;16.77;61.38;103594.19;4955366;28;9588;-78
2022/01/14 14:34:17;;;;;;;;;;;;;;;;;;;;;
2022/01/14 14:37:11;;;;;;;;;8.50;6.75;;;;;16.62;61.01;103577.75;4952251;28;9573;-78
2022/01/14 14:43:11;;;;;;;;;8.25;5.75;;;;;16.69;60.93;103586.81;4979770;23;9612;-77
2022/01/14 14:45:55;;;;;;;;;7.00;6.50;;;;;16.64;60.93;103586.66;4956986;23;9722;-78
2022/01/14 14:48:52;;;;;;;;;;;;;;;;;;;;;
2022/01/14 14:51:27;;;;;;;;;7.00;7.00;;;;;16.63;60.86;103584.84;4938968;28;9648;-77
2022/01/14 14:53:52;;;;;;;;;2.00;2.00;;;;;16.61;60.79;103575.94;4972761;28;9747;-78
2022/01/14 14:56:47;;;;;;;;;8.00;7.00;;;;;16.63;60.79;103574.28;4972936;28;9492;-78
2022/01/14 15:01:52;;;;;;;;;9.00;7.50;;;;;16.61;60.47;103573.31;4970119;28;9715;-78
2022/01/14 15:04:20;;;;;;;;;6.50;6.00;;;;;16.54;60.70;103565.94;4972959;28;9674;-78
2022/01/14 15:07:23;;;;;;;;;6.50;6.25;;;;;16.50;60.55;103553.47;4972394;28;9707;-78
2022/01/14 15:12:57;;;;;;;;;6.75;6.75;;;;;16.59;60.23;103572.34;5028035;23;9891;-78
2022/01/14 15:18:28;;;;;;;;;7.75;6.75;;;;;16.60;59.98;103570.63;4972224;28;9649;-78
2022/01/14 15:21:08;;;;;;;;;7.00;7.00;;;;;16.58;60.02;103559.09;4972061;28;9649;-78
2022/01/14 15:23:50;;;;;;;;;6.75;6.75;;;;;16.48;59.84;103547.25;4971545;28;9481;-78
2022/01/14 15:26:25;;;;;;;;;7.25;7.00;;;;;16.56;60.06;103556.41;4972283;28;9823;-78
2022/01/14 15:28:50;;;;;;;;;7.00;7.00;;;;;16.52;60.04;103556.19;4973821;28;9561;-78
2022/01/14 15:31:19;;;;;;;;;7.00;7.00;;;;;16.58;60.05;103564.38;4971556;28;9498;-77
2022/01/14 15:33:44;;;;;;;;;6.50;6.50;;;;;16.52;59.61;103558.84;4971689;28;8786;-77
2022/01/14 15:36:22;;;;;;;;;5.25;5.25;;;;;16.57;59.86;103560.84;4971230;28;9829;-77
2022/01/14 15:39:04;;;;;;;;;5.50;5.50;;;;;16.60;59.67;103568.00;4971652;28;9620;-78
2022/01/14 15:41:44;;;;;;;;;9.75;8.50;;;;;16.53;59.78;103561.53;4971631;28;10445;-78
2022/01/14 15:44:09;;;;;;;;;8.50;7.00;;;;;16.55;59.84;103565.13;4971056;28;9560;-78
2022/01/14 15:46:34;;;;;;;;;7.00;7.00;;;;;16.53;59.46;103555.38;4971753;28;9839;-77
2022/01/14 15:49:09;;;;;;;;;9.75;8.00;;;;;16.55;59.35;103562.50;4971702;28;8801;-77
2022/01/14 15:51:40;;;;;;;;;10.00;8.00;;;;;16.46;59.56;103543.63;4971084;28;8783;-77